createdAt,value
2023-03-18T09:13:38.729Z,3.28
2023-03-18T09:16:06.238Z,3.80
2023-03-18T09:18:32.991Z,2.72
2023-03-18T09:20:59.875Z,3.42
2023-03-18T09:23:27.577Z,2.97
2023-03-18T09:25:55.006Z,3.00
2023-03-18T09:28:21.687Z,2.30
2023-03-18T09:30:48.495Z,3.03
2023-03-18T09:33:16.082Z,2.90
2023-03-18T09:35:43.233Z,2.60
2023-03-18T09:38:17.604Z,2.25
2023-03-18T09:40:59.789Z,2.47
2023-03-18T09:43:51.770Z,3.17
2023-03-18T09:46:23.665Z,2.80
2023-03-18T09:49:05.535Z,3.10
2023-03-18T09:51:59.063Z,2.92
2023-03-18T09:54:42.495Z,2.78
2023-03-18T09:57:19.649Z,3.28
2023-03-18T09:59:54.723Z,3.15
2023-03-18T10:02:41.098Z,2.65
2023-03-18T10:05:12.836Z,2.92
2023-03-18T10:07:42.817Z,2.80
2023-03-18T10:10:12.341Z,2.38
2023-03-18T10:12:49.572Z,2.58
2023-03-18T10:15:19.358Z,3.20
2023-03-18T10:17:54.806Z,2.45
2023-03-18T10:20:27.994Z,2.83
2023-03-18T10:23:00.741Z,2.45
2023-03-18T10:26:00.277Z,2.22
2023-03-18T10:28:33.563Z,2.45
2023-03-18T10:31:11.976Z,2.85
2023-03-18T10:34:02.055Z,3.20
2023-03-18T10:36:39.130Z,3.42
2023-03-18T10:39:11.546Z,2.78
2023-03-18T10:41:39.203Z,2.60
2023-03-18T10:44:18.596Z,2.70
2023-03-18T10:46:47.738Z,2.40
2023-03-18T10:49:18.922Z,2.80
2023-03-18T10:51:50.960Z,2.47
2023-03-18T10:54:25.389Z,2.35
2023-03-18T10:56:53.186Z,2.67
2023-03-18T10:59:21.668Z,2.60
2023-03-18T11:01:50.879Z,3.10
2023-03-18T11:04:23.065Z,3.13
2023-03-18T11:06:55.818Z,3.20
2023-03-18T11:09:24.910Z,2.75
2023-03-18T11:11:57.419Z,2.75
2023-03-18T11:14:30.045Z,2.65
2023-03-18T11:17:02.835Z,3.00
2023-03-18T11:19:50.396Z,3.03
2023-03-18T11:22:24.618Z,3.42
2023-03-18T11:25:12.028Z,3.38
2023-03-18T11:27:42.034Z,3.35
2023-03-18T11:30:36.823Z,3.28
2023-03-18T11:33:03.515Z,3.70
2023-03-18T11:36:14.143Z,2.92
2023-03-18T11:38:42.444Z,3.53
2023-03-18T11:41:14.350Z,3.55
2023-03-18T11:43:55.942Z,4.05
2023-03-18T11:46:24.537Z,3.50
2023-03-18T11:48:52.147Z,3.95
2023-03-18T11:51:57.917Z,3.45
2023-03-18T11:54:24.937Z,3.72
2023-03-18T11:57:08.609Z,3.15
2023-03-18T11:59:48.389Z,2.30
2023-03-18T12:02:26.355Z,3.75
2023-03-18T12:05:05.939Z,4.13
2023-03-18T12:07:38.092Z,3.63
2023-03-18T12:10:19.688Z,3.80
2023-03-18T12:13:22.027Z,3.80
2023-03-18T12:16:11.787Z,3.50
2023-03-18T12:18:53.821Z,3.85
2023-03-18T12:21:43.696Z,4.60
2023-03-18T12:24:29.531Z,4.40
2023-03-18T12:26:59.713Z,3.55
2023-03-18T12:29:35.632Z,3.78
2023-03-18T12:32:08.121Z,4.15
2023-03-18T12:35:05.746Z,3.47
2023-03-18T12:37:51.105Z,3.60
2023-03-18T12:40:24.241Z,4.22
2023-03-18T12:42:51.232Z,3.10
2023-03-18T12:45:20.821Z,3.55
2023-03-18T12:47:53.135Z,4.65
2023-03-18T12:50:21.773Z,3.80
2023-03-18T12:53:16.883Z,3.85
2023-03-18T12:55:49.266Z,3.80
2023-03-18T12:58:23.286Z,4.07
2023-03-18T13:01:07.176Z,3.47
2023-03-18T13:03:34.816Z,3.28
2023-03-18T13:06:23.798Z,3.10
2023-03-18T13:09:02.477Z,3.05
2023-03-18T13:11:36.425Z,3.33
2023-03-18T13:16:36.611Z,3.45
2023-03-18T13:19:04.738Z,3.45
2023-03-18T13:21:34.465Z,3.47
2023-03-18T13:24:03.944Z,3.53
2023-03-18T13:27:15.842Z,3.97
2023-03-18T13:30:06.148Z,3.85
2023-03-18T13:32:44.710Z,3.22
2023-03-18T13:35:15.808Z,3.80
2023-03-18T13:38:19.645Z,4.40
2023-03-18T13:41:05.654Z,3.88
2023-03-18T13:43:34.096Z,3.72
2023-03-18T13:46:01.895Z,3.25
2023-03-18T13:48:33.494Z,3.50
2023-03-18T13:51:14.261Z,3.22
2023-03-18T13:53:43.943Z,3.45
2023-03-18T13:56:44.805Z,3.95
2023-03-18T13:59:33.510Z,2.95
2023-03-18T14:02:25.164Z,4.30
2023-03-18T14:04:52.435Z,3.10
2023-03-18T14:07:21.855Z,4.13
2023-03-18T14:10:02.525Z,3.72
2023-03-18T14:12:35.018Z,2.90
2023-03-18T14:15:10.153Z,2.92
2023-03-18T14:17:58.074Z,2.83
2023-03-18T14:20:27.775Z,3.40
2023-03-18T14:23:15.929Z,3.95
2023-03-18T14:25:44.371Z,3.30
2023-03-18T14:28:14.627Z,2.80
2023-03-18T14:31:08.993Z,3.25
2023-03-18T14:33:49.734Z,2.78
2023-03-18T14:36:16.471Z,3.22
2023-03-18T14:38:49.707Z,3.78
2023-03-18T14:41:28.852Z,3.17
2023-03-18T14:44:09.079Z,3.65
2023-03-18T14:46:44.789Z,2.97
2023-03-18T14:49:38.205Z,3.38
2023-03-18T14:52:15.783Z,3.00
2023-03-18T14:54:45.216Z,3.95
2023-03-18T14:57:11.898Z,3.30
2023-03-18T14:59:38.560Z,3.58
2023-03-18T15:02:13.989Z,3.35
2023-03-18T15:04:50.010Z,3.45
2023-03-18T15:07:16.724Z,3.67
2023-03-18T15:09:46.233Z,4.10
2023-03-18T15:12:18.297Z,3.00
2023-03-18T15:14:45.037Z,3.03
2023-03-18T15:17:16.729Z,3.10
2023-03-18T15:19:44.035Z,3.60
2023-03-18T15:22:26.010Z,3.42
2023-03-18T15:25:01.379Z,3.20
2023-03-18T15:27:30.726Z,3.65
2023-03-18T15:30:00.873Z,3.95
2023-03-18T15:32:29.994Z,3.75
2023-03-18T15:35:06.718Z,3.47
2023-03-18T15:37:42.761Z,3.00
2023-03-18T15:40:25.983Z,3.97
2023-03-18T15:43:04.175Z,4.50
2023-03-18T15:45:31.890Z,4.72
2023-03-18T15:48:08.328Z,5.00
2023-03-18T15:50:36.899Z,4.13
2023-03-18T15:53:41.799Z,4.00
2023-03-18T15:59:12.906Z,4.38
2023-03-18T16:01:42.311Z,4.50
2023-03-18T16:04:13.666Z,4.47
2023-03-18T16:06:40.499Z,4.78
2023-03-18T16:09:17.038Z,4.03
2023-03-18T16:11:47.606Z,4.40
2023-03-18T16:14:17.536Z,4.88
2023-03-18T16:16:44.448Z,4.45
2023-03-18T16:19:25.264Z,4.80
2023-03-18T16:21:52.971Z,4.32
2023-03-18T16:24:20.165Z,4.57
2023-03-18T16:26:47.650Z,4.38
2023-03-18T16:29:16.632Z,4.20
2023-03-18T16:31:44.268Z,4.30
2023-03-18T16:34:21.779Z,4.90
2023-03-18T16:36:50.677Z,4.18
2023-03-18T16:39:27.261Z,6.00
2023-03-18T16:41:54.708Z,4.97
2023-03-18T16:44:23.510Z,5.13
2023-03-18T16:46:53.737Z,4.47
2023-03-18T16:49:26.004Z,5.43
2023-03-18T16:51:53.375Z,5.10
2023-03-18T16:54:24.455Z,5.13
2023-03-18T16:56:54.438Z,5.20
2023-03-18T16:59:22.224Z,23.92
2023-03-18T17:01:49.443Z,5.03
2023-03-18T17:04:22.943Z,4.93
2023-03-18T17:06:49.567Z,5.72
2023-03-18T17:09:16.223Z,4.78
2023-03-18T17:11:44.099Z,5.10
2023-03-18T17:14:30.173Z,5.35
2023-03-18T17:16:59.334Z,5.00
2023-03-18T17:19:26.407Z,5.82
2023-03-18T17:21:53.948Z,4.85
2023-03-18T17:24:22.783Z,5.30
2023-03-18T17:26:51.719Z,5.28
2023-03-18T17:29:27.511Z,5.82
2023-03-18T17:31:54.569Z,5.60
2023-03-18T17:34:21.300Z,5.32
2023-03-18T17:36:48.540Z,5.45
2023-03-18T17:39:15.709Z,6.95
2023-03-18T17:41:42.812Z,5.65
2023-03-18T17:44:30.063Z,5.22
2023-03-18T17:46:57.609Z,5.60
2023-03-18T17:49:27.881Z,6.75
2023-03-18T17:51:55.710Z,6.00
2023-03-18T17:54:25.270Z,6.65
2023-03-18T17:56:52.895Z,8.02
2023-03-18T17:59:20.970Z,5.93
2023-03-18T18:01:49.804Z,6.07
2023-03-18T18:04:19.298Z,5.80
2023-03-18T18:06:48.799Z,5.82
2023-03-18T18:09:16.838Z,6.00
2023-03-18T18:11:48.915Z,5.90
2023-03-18T18:14:25.499Z,5.50
2023-03-18T18:16:53.986Z,5.82
2023-03-18T18:19:20.671Z,5.72
2023-03-18T18:21:48.303Z,6.10
2023-03-18T18:24:25.802Z,6.00
2023-03-18T18:26:52.791Z,5.95
2023-03-18T18:29:22.133Z,5.97
2023-03-18T18:31:49.245Z,6.05
2023-03-18T18:34:16.272Z,5.43
2023-03-18T18:36:43.030Z,6.28
2023-03-18T18:39:09.713Z,6.35
2023-03-18T18:41:36.832Z,6.30
2023-03-18T18:44:03.467Z,5.95
2023-03-18T18:46:30.907Z,6.35
2023-03-18T18:48:57.774Z,6.78
2023-03-18T18:51:25.243Z,6.32
2023-03-18T18:53:53.709Z,6.50
2023-03-18T18:56:23.498Z,6.35
2023-03-18T18:58:51.753Z,6.07
2023-03-18T19:01:19.579Z,5.80
2023-03-18T19:03:46.683Z,5.78
2023-03-18T19:06:32.557Z,7.18
2023-03-18T19:09:01.539Z,6.95
2023-03-18T19:11:28.853Z,6.95
2023-03-18T19:14:17.537Z,7.55
2023-03-18T19:16:44.418Z,7.57
2023-03-18T19:19:18.774Z,8.13
2023-03-18T19:21:45.510Z,7.40
2023-03-18T19:24:21.662Z,8.80
2023-03-18T19:26:48.672Z,9.23
2023-03-18T19:29:16.241Z,9.30
2023-03-18T19:31:44.563Z,8.63
2023-03-18T19:34:18.021Z,7.85
2023-03-18T19:36:48.465Z,8.07
2023-03-18T19:39:17.399Z,8.52
2023-03-18T19:41:45.100Z,8.18
2023-03-18T19:44:21.982Z,7.53
2023-03-18T19:46:51.244Z,7.40
2023-03-18T19:49:26.206Z,8.32
2023-03-18T19:51:53.625Z,8.18
2023-03-18T19:54:27.258Z,8.02
2023-03-18T19:56:55.678Z,7.82
2023-03-18T19:59:24.712Z,8.32
2023-03-18T20:01:51.787Z,7.85
2023-03-18T20:04:19.751Z,7.60
2023-03-18T20:06:50.554Z,7.95
2023-03-18T20:09:20.241Z,8.05
2023-03-18T20:11:51.111Z,11.50
2023-03-18T20:14:25.792Z,18.10
2023-03-18T20:16:53.542Z,12.43
2023-03-18T20:19:21.218Z,10.60
2023-03-18T20:21:50.888Z,10.02
2023-03-18T20:24:21.903Z,10.45
2023-03-18T20:26:48.535Z,10.02
2023-03-18T20:29:20.921Z,11.38
2023-03-18T20:31:47.677Z,8.88
2023-03-18T20:34:14.382Z,10.57
2023-03-18T20:36:41.700Z,9.45
2023-03-18T20:39:18.269Z,9.23
2023-03-18T20:41:44.942Z,9.77
2023-03-18T20:44:12.692Z,9.10
2023-03-18T20:46:40.438Z,8.40
2023-03-18T20:49:07.327Z,8.57
2023-03-18T20:51:40.706Z,8.98
2023-03-18T20:54:19.549Z,9.40
2023-03-18T20:56:46.867Z,9.55
2023-03-18T20:59:13.802Z,9.95
2023-03-18T21:01:41.088Z,8.30
2023-03-18T21:04:11.437Z,9.68
2023-03-18T21:06:38.725Z,9.13
2023-03-18T21:09:06.581Z,9.48
2023-03-18T21:11:33.252Z,10.57
2023-03-18T21:14:00.066Z,9.90
2023-03-18T21:16:27.775Z,10.57
2023-03-18T21:18:54.510Z,10.73
2023-03-18T21:21:23.325Z,8.70
2023-03-18T21:23:51.433Z,9.35
2023-03-18T21:26:18.611Z,9.15
2023-03-18T21:28:45.300Z,10.48
2023-03-18T21:31:32.775Z,10.40
2023-03-18T21:34:00.986Z,12.10
2023-03-18T21:36:27.810Z,11.77
2023-03-18T21:38:54.493Z,12.82
2023-03-18T21:41:29.612Z,10.02
2023-03-18T21:43:56.758Z,10.40
2023-03-18T21:46:24.792Z,10.13
2023-03-18T21:48:52.105Z,10.77
2023-03-18T21:51:38.210Z,10.10
2023-03-18T21:54:07.072Z,9.52
2023-03-18T21:56:33.666Z,11.43
2023-03-18T21:59:00.968Z,11.45
2023-03-18T22:01:32.145Z,11.73
2023-03-18T22:03:59.618Z,12.35
2023-03-18T22:06:27.345Z,9.57
2023-03-18T22:08:56.864Z,9.48
2023-03-18T22:11:23.995Z,8.38
2023-03-18T22:13:51.097Z,9.02
2023-03-18T22:16:19.006Z,9.13
2023-03-18T22:18:47.186Z,9.40
2023-03-18T22:21:14.185Z,8.88
2023-03-18T22:23:42.876Z,8.82
2023-03-18T22:26:14.108Z,10.13
2023-03-18T22:28:41.332Z,9.32
2023-03-18T22:31:15.698Z,8.75
2023-03-18T22:33:42.736Z,9.23
2023-03-18T22:36:12.696Z,9.02
2023-03-18T22:38:39.906Z,10.23
2023-03-18T22:41:07.312Z,9.23
2023-03-18T22:43:38.165Z,9.48
2023-03-18T22:46:11.294Z,10.32
2023-03-18T22:48:38.603Z,9.82
2023-03-18T22:51:05.856Z,9.05
2023-03-18T22:53:34.853Z,9.32
2023-03-18T22:56:04.270Z,10.18
2023-03-18T22:58:31.453Z,9.30
2023-03-18T23:00:58.512Z,10.10
2023-03-18T23:03:33.675Z,11.88
2023-03-18T23:06:01.841Z,11.70
2023-03-18T23:08:28.928Z,9.93
2023-03-18T23:10:57.385Z,10.32
2023-03-18T23:13:29.344Z,11.35
2023-03-18T23:15:58.025Z,13.48
2023-03-18T23:18:25.556Z,14.60
2023-03-18T23:20:52.940Z,13.95
2023-03-18T23:23:21.531Z,17.20
2023-03-18T23:25:49.023Z,16.25
2023-03-18T23:28:16.834Z,16.17
2023-03-18T23:30:46.694Z,13.60
2023-03-18T23:33:13.898Z,14.65
2023-03-18T23:35:41.699Z,14.63
2023-03-18T23:38:09.149Z,16.83
2023-03-18T23:40:36.501Z,16.52
2023-03-18T23:43:03.671Z,16.20
2023-03-18T23:45:30.993Z,15.35
2023-03-18T23:47:57.746Z,17.15
2023-03-18T23:50:24.501Z,16.55
2023-03-18T23:52:51.068Z,16.20
2023-03-18T23:55:33.201Z,16.60
2023-03-18T23:58:00.525Z,16.83
